Time;durP1;ratioP1;P1;durP2;ratioP2;P2;SDS_P1;SDS_P2;PMS_P1;PMS_P2;Temp;Humidity;BMP_temperature;BMP_pressure;BME280_temperature;BME280_humidity;BME280_pressure;Samples;Min_cycle;Max_cycle;Signal;HPM_P1;HPM_P2
2023/05/21 00:01:38;;;;;;;12.73;10.27;;;;;;;18.60;84.86;100470.25;5114923;27;20098;-66
2023/05/21 00:04:06;;;;;;;13.13;10.35;;;;;;;18.53;85.30;100461.16;5114892;28;20475;-67
2023/05/21 00:06:34;;;;;;;13.77;10.40;;;;;;;18.47;85.68;100461.88;5114581;28;20479;-66
2023/05/21 00:09:00;;;;;;;12.85;10.43;;;;;;;18.40;85.97;100460.91;5115061;28;20053;-66
2023/05/21 00:11:26;;;;;;;12.77;10.50;;;;;;;18.34;86.44;100460.78;5114889;28;20797;-66
2023/05/21 00:13:51;;;;;;;14.50;10.85;;;;;;;18.32;87.10;100469.09;5114578;28;20111;-67
2023/05/21 00:16:17;;;;;;;15.20;11.07;;;;;;;18.27;87.59;100466.06;5114904;28;20031;-66
2023/05/21 00:18:43;;;;;;;13.20;10.32;;;;;;;18.18;87.83;100463.59;5114441;28;20034;-66
2023/05/21 00:21:09;;;;;;;15.07;11.13;;;;;;;18.13;88.45;100461.41;5114520;28;20436;-67
2023/05/21 00:23:36;;;;;;;18.25;12.45;;;;;;;18.08;88.58;100469.25;5114356;28;20043;-66
2023/05/21 00:26:02;;;;;;;14.82;10.52;;;;;;;17.92;89.08;100451.19;5114774;28;20042;-66
2023/05/21 00:28:27;;;;;;;14.15;11.30;;;;;;;17.93;89.58;100468.34;5114426;28;20023;-67
2023/05/21 00:30:52;;;;;;;15.60;11.68;;;;;;;17.86;90.14;100461.91;5112856;28;20058;-66
2023/05/21 00:33:20;;;;;;;17.70;11.20;;;;;;;17.75;90.37;100459.59;5112683;28;20027;-67
2023/05/21 00:35:45;;;;;;;15.23;10.60;;;;;;;17.64;91.02;100457.28;5112401;28;20067;-67
2023/05/21 00:38:11;;;;;;;17.88;11.82;;;;;;;17.56;91.00;100449.16;5112629;28;20066;-67
2023/05/21 00:40:39;;;;;;;14.30;11.15;;;;;;;17.54;91.66;100453.94;5112794;28;20122;-66
2023/05/21 00:43:06;;;;;;;14.50;11.60;;;;;;;17.40;92.52;100439.19;5114576;28;20111;-66
2023/05/21 00:45:32;;;;;;;14.15;11.20;;;;;;;17.48;93.01;100452.75;5112874;28;20035;-67
2023/05/21 00:47:58;;;;;;;17.83;12.20;;;;;;;17.46;93.58;100448.53;5113013;28;20020;-67
2023/05/21 00:50:24;;;;;;;16.13;11.55;;;;;;;17.43;93.67;100443.47;5114244;28;20027;-67
2023/05/21 00:52:50;;;;;;;13.90;11.10;;;;;;;17.43;93.74;100444.31;5113671;28;20019;-67
2023/05/21 00:55:16;;;;;;;13.20;10.93;;;;;;;17.40;93.84;100428.34;5114267;28;20077;-67
2023/05/21 00:57:41;;;;;;;15.80;11.43;;;;;;;17.39;93.77;100431.25;5113970;28;20050;-67
2023/05/21 01:00:09;;;;;;;13.93;11.10;;;;;;;17.36;94.20;100431.59;5113970;28;20031;-67
2023/05/21 01:02:35;;;;;;;13.93;11.40;;;;;;;17.32;94.34;100420.22;5112088;28;20020;-67
2023/05/21 01:05:03;;;;;;;16.67;11.75;;;;;;;17.23;94.58;100421.31;5112556;28;20051;-67
2023/05/21 01:07:29;;;;;;;16.45;11.98;;;;;;;17.20;95.32;100427.09;5112400;28;20062;-67
2023/05/21 01:09:55;;;;;;;15.63;12.15;;;;;;;17.16;95.01;100424.88;5113953;28;20055;-66
2023/05/21 01:12:22;;;;;;;12.95;11.30;;;;;;;17.07;95.38;100423.22;5113398;28;20075;-67
2023/05/21 01:14:48;;;;;;;14.52;11.10;;;;;;;17.04;95.51;100426.25;5113564;28;20072;-67
2023/05/21 01:17:15;;;;;;;16.50;11.60;;;;;;;17.01;95.88;100440.16;5111989;28;20019;-66
2023/05/21 01:19:43;;;;;;;14.25;11.43;;;;;;;16.91;96.55;100437.66;5113035;28;20027;-67
2023/05/21 01:22:11;;;;;;;15.93;11.65;;;;;;;16.87;96.51;100430.91;5112976;28;20035;-67
2023/05/21 01:24:36;;;;;;;15.18;11.77;;;;;;;16.85;97.26;100440.19;5112673;28;20031;-67
2023/05/21 01:27:06;;;;;;;13.65;11.40;;;;;;;16.80;97.66;100429.88;5112959;27;20056;-66
2023/05/21 01:29:31;;;;;;;17.23;12.07;;;;;;;16.77;97.94;100424.78;5113044;28;20035;-67
2023/05/21 01:32:14;;;;;;;14.15;11.85;;;;;;;16.71;98.46;100425.50;5112525;28;20020;-67
2023/05/21 01:34:48;;;;;;;16.42;12.57;;;;;;;16.61;98.73;100415.84;5113104;27;20094;-66
2023/05/21 01:37:19;;;;;;;17.95;12.23;;;;;;;16.64;99.43;100421.75;5112876;28;20016;-66
2023/05/21 01:39:52;;;;;;;16.10;12.30;;;;;;;16.59;99.61;100416.03;5112946;28;20085;-67
2023/05/21 01:42:20;;;;;;;15.20;11.77;;;;;;;16.59;99.81;100423.28;5113190;28;20404;-66
2023/05/21 01:44:47;;;;;;;14.25;12.55;;;;;;;16.58;99.94;100429.72;5112852;27;20019;-67
2023/05/21 01:47:14;;;;;;;17.45;13.02;;;;;;;16.49;100.00;100409.09;5112276;28;20053;-66
2023/05/21 01:49:39;;;;;;;13.57;11.88;;;;;;;16.52;100.00;100425.00;5112289;28;20384;-67
2023/05/21 01:52:05;;;;;;;20.90;13.30;;;;;;;16.45;100.00;100423.97;5111870;28;20046;-67
2023/05/21 01:54:30;;;;;;;16.38;13.07;;;;;;;16.47;100.00;100424.69;5113309;28;20592;-67
2023/05/21 01:56:56;;;;;;;18.33;13.40;;;;;;;16.47;100.00;100433.63;5113300;28;20364;-67
2023/05/21 01:59:21;;;;;;;19.67;13.57;;;;;;;16.43;100.00;100434.97;5113282;28;20076;-67
2023/05/21 02:01:47;;;;;;;15.80;12.93;;;;;;;16.43;100.00;100428.72;5113092;28;20045;-67
2023/05/21 02:04:12;;;;;;;17.58;13.07;;;;;;;16.39;100.00;100413.78;5112957;28;20022;-67
2023/05/21 02:06:38;;;;;;;17.83;13.38;;;;;;;16.39;100.00;100416.50;5111878;28;20088;-67
2023/05/21 02:09:04;;;;;;;16.60;13.27;;;;;;;16.43;100.00;100416.03;5112828;28;20376;-67
2023/05/21 02:11:30;;;;;;;18.75;12.40;;;;;;;16.36;100.00;100401.44;5112299;28;20051;-67
2023/05/21 02:13:56;;;;;;;18.85;13.25;;;;;;;16.38;100.00;100418.34;5113004;28;20054;-67
2023/05/21 02:16:21;;;;;;;15.52;12.75;;;;;;;16.35;100.00;100407.88;5111682;28;20986;-67
2023/05/21 02:18:50;;;;;;;15.15;12.45;;;;;;;16.36;100.00;100406.88;5111450;28;20077;-67
2023/05/21 02:21:15;;;;;;;15.77;12.30;;;;;;;16.37;100.00;100421.22;5112602;28;20391;-67
2023/05/21 02:23:41;;;;;;;14.68;11.50;;;;;;;16.40;100.00;100415.47;5112613;28;20101;-67
2023/05/21 02:26:06;;;;;;;15.82;12.52;;;;;;;16.34;99.62;100408.88;5112573;28;20084;-67
2023/05/21 02:28:33;;;;;;;15.23;12.02;;;;;;;16.38;99.58;100414.81;5111463;28;20038;-67
2023/05/21 02:30:58;;;;;;;18.02;12.07;;;;;;;16.35;99.75;100421.41;5112735;28;20690;-67
2023/05/21 02:33:24;;;;;;;16.08;12.52;;;;;;;16.31;99.67;100421.94;5112590;28;20115;-67
2023/05/21 02:35:50;;;;;;;20.60;12.50;;;;;;;16.30;99.19;100422.94;5111014;28;20502;-66
2023/05/21 02:38:18;;;;;;;17.13;12.07;;;;;;;16.26;99.04;100421.56;5112356;28;20027;-67
2023/05/21 02:40:44;;;;;;;14.18;11.90;;;;;;;16.29;98.78;100423.94;5112421;28;20066;-67
2023/05/21 02:43:10;;;;;;;13.98;12.32;;;;;;;16.24;99.14;100427.16;5112178;28;20062;-67
2023/05/21 02:45:35;;;;;;;16.33;11.90;;;;;;;16.12;98.93;100406.00;5112435;28;20035;-67
2023/05/21 02:48:01;;;;;;;16.67;12.55;;;;;;;16.24;98.28;100427.16;5112069;28;20031;-67
2023/05/21 02:50:26;;;;;;;15.27;12.48;;;;;;;16.18;98.61;100424.28;5112332;28;20027;-67
2023/05/21 02:52:51;;;;;;;14.30;12.60;;;;;;;16.14;99.37;100421.06;5112025;28;20107;-67
2023/05/21 02:55:17;;;;;;;17.50;12.88;;;;;;;16.12;99.46;100439.31;5111967;28;20035;-67
2023/05/21 02:57:42;;;;;;;16.15;12.80;;;;;;;16.09;99.91;100439.66;5110998;28;20032;-67
2023/05/21 03:00:09;;;;;;;20.80;12.68;;;;;;;16.03;99.98;100425.94;5110913;28;20031;-67
2023/05/21 03:02:35;;;;;;;17.95;13.25;;;;;;;16.07;100.00;100424.59;5111993;28;20023;-67
2023/05/21 03:05:00;;;;;;;15.73;12.48;;;;;;;16.06;100.00;100431.03;5112393;28;20028;-67
2023/05/21 03:07:26;;;;;;;19.38;13.13;;;;;;;16.09;100.00;100436.94;5112333;28;20055;-67
2023/05/21 03:09:51;;;;;;;17.38;13.00;;;;;;;16.08;100.00;100434.41;5112151;28;20104;-67
2023/05/21 03:12:16;;;;;;;16.92;13.45;;;;;;;16.09;100.00;100438.81;5112277;28;20532;-67
2023/05/21 03:14:43;;;;;;;16.40;12.35;;;;;;;16.01;100.00;100431.53;5112090;28;20027;-67
2023/05/21 03:17:12;;;;;;;19.45;12.43;;;;;;;16.06;100.00;100431.03;5112386;28;20019;-67
2023/05/21 03:19:40;;;;;;;18.45;13.50;;;;;;;16.07;100.00;100432.72;5110814;28;20031;-67
2023/05/21 03:22:06;;;;;;;15.15;12.43;;;;;;;16.07;100.00;100435.41;5112053;28;20067;-67
2023/05/21 03:24:31;;;;;;;16.73;11.95;;;;;;;16.09;99.96;100438.81;5112030;28;20498;-67
2023/05/21 03:27:00;;;;;;;23.23;13.07;;;;;;;16.07;99.87;100428.16;5110879;28;20020;-67
2023/05/21 03:29:26;;;;;;;16.50;11.68;;;;;;;16.12;100.00;100433.06;5111998;28;20031;-67
2023/05/21 03:31:55;;;;;;;18.65;12.32;;;;;;;16.15;99.44;100441.69;5111960;28;20028;-67
2023/05/21 03:34:20;;;;;;;17.80;12.30;;;;;;;16.16;99.24;100431.72;5109636;28;20059;-68
2023/05/21 03:36:46;;;;;;;16.70;12.00;;;;;;;16.12;98.89;100427.66;5110794;28;20054;-69
2023/05/21 03:39:11;;;;;;;14.60;11.30;;;;;;;16.11;99.00;100426.81;5110944;28;20118;-69
2023/05/21 03:41:37;;;;;;;14.68;11.93;;;;;;;16.23;99.07;100448.97;5110694;28;20038;-68
2023/05/21 03:44:02;;;;;;;14.43;11.75;;;;;;;16.23;98.90;100441.72;5110840;28;20076;-68
2023/05/21 03:46:28;;;;;;;15.77;11.88;;;;;;;16.24;98.42;100442.53;5110781;28;20422;-69
2023/05/21 03:48:53;;;;;;;14.98;11.18;;;;;;;16.31;97.61;100447.13;5110773;28;20035;-68
2023/05/21 03:51:19;;;;;;;17.42;12.35;;;;;;;16.29;97.65;100440.19;5110287;28;20039;-68
2023/05/21 03:53:45;;;;;;;15.68;11.05;;;;;;;16.27;97.07;100432.25;5109938;28;20028;-68
2023/05/21 03:56:10;;;;;;;15.15;10.98;;;;;;;16.40;96.75;100446.13;5110032;28;20023;-69
2023/05/21 03:58:36;;;;;;;12.25;10.30;;;;;;;16.38;96.18;100442.72;5110088;28;20106;-68
2023/05/21 04:01:03;;;;;;;16.65;12.05;;;;;;;16.52;96.06;100462.91;5110040;28;20042;-68
2023/05/21 04:03:29;;;;;;;15.20;10.80;;;;;;;16.56;95.67;100464.25;5109719;28;20016;-69
2023/05/21 04:05:55;;;;;;;16.83;11.25;;;;;;;16.61;94.99;100451.06;5109748;28;20027;-69
2023/05/21 04:08:20;;;;;;;16.23;11.38;;;;;;;16.68;95.13;100457.47;5110314;28;20394;-68
2023/05/21 04:10:46;;;;;;;19.83;10.73;;;;;;;16.75;94.45;100458.50;5113705;28;20110;-68
2023/05/21 04:13:11;;;;;;;15.77;11.23;;;;;;;16.81;93.92;100445.13;5113795;28;20487;-68
2023/05/21 04:15:37;;;;;;;14.05;11.00;;;;;;;16.90;93.51;100449.50;5112745;28;20019;-68
2023/05/21 04:18:03;;;;;;;11.95;10.27;;;;;;;16.97;92.44;100444.25;5113894;28;20031;-68
2023/05/21 04:20:28;;;;;;;15.60;10.77;;;;;;;17.04;92.44;100443.38;5114602;28;20072;-68
2023/05/21 04:22:54;;;;;;;15.10;10.85;;;;;;;17.12;91.86;100443.34;5114893;28;20019;-68
2023/05/21 04:25:21;;;;;;;14.50;10.50;;;;;;;17.19;91.58;100441.63;5114409;28;20024;-69
2023/05/21 04:27:48;;;;;;;12.52;10.38;;;;;;;17.25;91.32;100432.81;5114858;28;20027;-68
2023/05/21 04:30:14;;;;;;;12.68;10.02;;;;;;;17.37;90.61;100439.56;5114594;28;20023;-68
2023/05/21 04:32:39;;;;;;;14.43;9.88;;;;;;;17.45;91.03;100434.13;5115433;28;20016;-69
2023/05/21 04:35:05;;;;;;;17.38;10.02;;;;;;;17.57;90.54;100440.00;5115453;28;20069;-70
2023/05/21 04:37:33;;;;;;;13.82;9.73;;;;;;;17.67;89.45;100443.38;5114987;28;20019;-69
2023/05/21 04:40:00;;;;;;;16.60;9.52;;;;;;;17.76;88.19;100445.84;5113986;28;20076;-69
2023/05/21 04:42:26;;;;;;;12.68;9.75;;;;;;;17.84;86.99;100434.94;5115071;28;20030;-69
2023/05/21 04:44:51;;;;;;;14.23;9.73;;;;;;;17.95;86.17;100433.69;5115097;28;20023;-69
2023/05/21 04:47:17;;;;;;;10.98;9.27;;;;;;;18.06;85.78;100444.16;5116084;28;20019;-69
2023/05/21 04:49:43;;;;;;;10.77;9.63;;;;;;;18.12;85.07;100435.28;5115823;28;20732;-69
2023/05/21 04:52:09;;;;;;;12.80;10.82;;;;;;;18.29;83.64;100436.88;5116131;28;20024;-69
2023/05/21 04:54:37;;;;;;;16.42;9.60;;;;;;;18.34;83.79;100439.88;5115160;28;20027;-65
2023/05/21 04:57:03;;;;;;;13.38;9.90;;;;;;;18.49;82.74;100438.09;5115137;28;20419;-66
2023/05/21 04:59:29;;;;;;;12.43;9.10;;;;;;;18.56;82.48;100421.88;5114176;28;20023;-66
2023/05/21 05:01:54;;;;;;;12.40;9.60;;;;;;;18.69;81.49;100433.84;5111331;28;20088;-66
2023/05/21 05:04:20;;;;;;;14.95;9.48;;;;;;;18.78;81.19;100443.63;5114792;28;20039;-66
2023/05/21 05:06:46;;;;;;;12.73;9.20;;;;;;;18.85;80.97;100433.69;5114694;28;20027;-66
2023/05/21 05:09:11;;;;;;;15.02;9.48;;;;;;;19.08;79.98;100456.22;5115224;27;20028;-66
2023/05/21 05:11:37;;;;;;;11.95;9.50;;;;;;;19.23;78.46;100448.94;5113912;28;20052;-66
2023/05/21 05:14:02;;;;;;;13.63;9.35;;;;;;;19.33;78.12;100438.63;5114054;28;20031;-65
2023/05/21 05:16:28;;;;;;;12.23;9.35;;;;;;;19.45;77.63;100434.38;5107481;28;20024;-66
2023/05/21 05:18:53;;;;;;;14.18;9.55;;;;;;;19.62;75.42;100441.34;5107271;28;20030;-66
2023/05/21 05:21:20;;;;;;;10.77;9.15;;;;;;;19.69;75.14;100442.25;5108401;28;20034;-66
2023/05/21 05:23:46;;;;;;;13.00;8.80;;;;;;;19.80;75.02;100439.03;5113153;28;20019;-65
2023/05/21 05:26:11;;;;;;;15.02;8.82;;;;;;;19.93;74.07;100441.09;5112624;28;20104;-66
2023/05/21 05:28:37;;;;;;;11.95;8.75;;;;;;;20.02;72.95;100435.31;5111939;28;20038;-65
2023/05/21 05:31:02;;;;;;;11.57;8.65;;;;;;;20.09;73.39;100432.69;5112115;28;20065;-65
2023/05/21 05:33:28;;;;;;;11.05;8.65;;;;;;;20.21;74.11;100443.97;5112265;27;20098;-65
2023/05/21 05:35:53;;;;;;;12.35;9.15;;;;;;;20.26;72.47;100445.06;5112624;28;20027;-66
2023/05/21 05:38:19;;;;;;;10.32;8.95;;;;;;;20.39;71.11;100439.75;5112226;28;20069;-65
2023/05/21 05:40:44;;;;;;;10.63;9.02;;;;;;;20.52;71.05;100450.78;5112203;28;20027;-66
2023/05/21 05:43:10;;;;;;;12.02;8.95;;;;;;;20.63;70.59;100446.69;5112554;28;20027;-65
2023/05/21 05:45:35;;;;;;;11.98;8.30;;;;;;;20.64;70.33;100427.41;5111707;28;20023;-65
2023/05/21 05:48:01;;;;;;;11.32;8.07;;;;;;;20.87;69.87;100440.78;5111897;28;20038;-66
2023/05/21 05:50:26;;;;;;;11.32;8.25;;;;;;;20.96;68.79;100447.81;5110937;28;20084;-66
2023/05/21 05:52:52;;;;;;;13.98;9.35;;;;;;;20.99;68.81;100444.69;5111020;28;20092;-65
2023/05/21 05:55:17;;;;;;;11.52;8.73;;;;;;;21.05;69.00;100443.91;5110285;28;20031;-66
2023/05/21 05:57:43;;;;;;;9.73;8.38;;;;;;;21.09;68.70;100439.75;5102262;28;20030;-66
2023/05/21 06:00:11;;;;;;;11.75;8.77;;;;;;;21.23;68.38;100446.97;5112194;28;20031;-66
2023/05/21 06:02:37;;;;;;;12.57;8.77;;;;;;;21.28;68.37;100423.47;5111830;28;20030;-66
2023/05/21 06:05:03;;;;;;;13.63;8.68;;;;;;;21.44;68.72;100416.88;5111824;28;20170;-66
2023/05/21 06:07:28;;;;;;;15.07;9.13;;;;;;;21.58;68.15;100427.66;5111834;28;20027;-66
2023/05/21 06:09:54;;;;;;;13.07;9.23;;;;;;;21.71;66.87;100424.97;5111683;28;20031;-66
2023/05/21 06:12:19;;;;;;;11.48;8.63;;;;;;;21.78;67.12;100425.88;5111536;28;20058;-66
2023/05/21 06:14:45;;;;;;;9.40;7.45;;;;;;;21.92;66.95;100427.59;5111685;28;20030;-66
2023/05/21 06:17:11;;;;;;;10.82;8.68;;;;;;;22.12;64.90;100427.69;5112098;28;20030;-66
2023/05/21 06:19:36;;;;;;;12.63;8.63;;;;;;;22.13;65.36;100415.69;5112212;28;20503;-66
2023/05/21 06:22:02;;;;;;;11.60;8.55;;;;;;;22.22;64.54;100425.38;5110476;28;20022;-67
2023/05/21 06:24:27;;;;;;;8.57;7.68;;;;;;;22.23;65.20;100424.31;5110356;28;20028;-66
2023/05/21 06:26:52;;;;;;;11.90;8.70;;;;;;;22.26;64.97;100430.25;5112387;28;20086;-69
2023/05/21 06:29:18;;;;;;;11.10;8.35;;;;;;;22.36;63.72;100424.34;5112821;28;20094;-68
2023/05/21 06:31:43;;;;;;;14.25;8.10;;;;;;;22.38;63.99;100429.63;5112384;28;20020;-69
2023/05/21 06:34:10;;;;;;;9.27;7.60;;;;;;;22.44;64.08;100429.59;5113186;28;20023;-69
2023/05/21 06:36:36;;;;;;;12.10;8.43;;;;;;;22.54;64.36;100429.25;5112816;28;20024;-69
2023/05/21 06:39:02;;;;;;;11.40;8.88;;;;;;;22.55;63.46;100420.84;5112836;27;20035;-69
2023/05/21 06:41:27;;;;;;;12.00;8.05;;;;;;;22.70;63.29;100426.91;5112096;28;20047;-68
2023/05/21 06:43:53;;;;;;;11.55;8.50;;;;;;;22.76;62.89;100417.88;5116183;28;20032;-67
2023/05/21 06:46:18;;;;;;;14.25;8.85;;;;;;;22.83;63.14;100415.97;5116436;28;20024;-67
2023/05/21 06:48:45;;;;;;;11.38;7.88;;;;;;;22.83;63.03;100409.69;5113359;28;20096;-68
2023/05/21 06:51:11;;;;;;;10.10;7.88;;;;;;;22.97;63.45;100414.09;5113825;28;20102;-70
2023/05/21 06:53:36;;;;;;;10.35;7.28;;;;;;;23.07;62.82;100417.22;5113045;28;20083;-68
2023/05/21 06:56:02;;;;;;;9.15;8.25;;;;;;;23.12;61.82;100401.03;5111230;28;20036;-69
2023/05/21 06:58:30;;;;;;;10.18;7.18;;;;;;;23.21;62.26;100419.72;5111168;28;20028;-69
2023/05/21 07:00:56;;;;;;;11.70;8.45;;;;;;;23.26;61.77;100408.19;5111847;28;20031;-70
2023/05/21 07:03:22;;;;;;;10.43;8.15;;;;;;;23.36;61.34;100414.03;5112178;28;20031;-70
2023/05/21 07:05:47;;;;;;;14.00;7.85;;;;;;;23.46;61.63;100414.44;5112370;28;20026;-70
2023/05/21 07:08:13;;;;;;;10.27;7.60;;;;;;;23.57;61.53;100406.38;5112139;28;20352;-70
2023/05/21 07:10:38;;;;;;;12.77;7.40;;;;;;;23.70;61.71;100414.56;5112176;28;20115;-70
2023/05/21 07:13:03;;;;;;;16.42;12.38;;;;;;;23.82;60.83;100401.88;5111894;28;20036;-69
2023/05/21 07:15:29;;;;;;;41.97;24.17;;;;;;;23.93;60.02;100408.56;5112451;28;20020;-69
2023/05/21 07:17:54;;;;;;;21.05;12.68;;;;;;;23.94;59.79;100394.69;5110534;28;20046;-70
2023/05/21 07:20:20;;;;;;;13.48;9.00;;;;;;;24.02;59.14;100413.59;5112403;28;20049;-70
2023/05/21 07:22:45;;;;;;;11.63;7.45;;;;;;;23.98;57.92;100400.53;5111602;28;20039;-69
2023/05/21 07:25:10;;;;;;;13.77;6.95;;;;;;;24.00;57.64;100395.69;5119861;28;20023;-70
2023/05/21 07:27:36;;;;;;;8.43;6.68;;;;;;;24.08;58.18;100407.25;5132468;28;20024;-69
2023/05/21 07:30:01;;;;;;;8.00;6.75;;;;;;;24.16;58.04;100408.88;5132631;28;20079;-69
2023/05/21 07:32:27;;;;;;;7.60;6.78;;;;;;;24.18;56.49;100396.63;5132430;28;20067;-69
2023/05/21 07:34:54;;;;;;;12.40;6.90;;;;;;;24.23;56.21;100398.72;5132089;28;20085;-71
2023/05/21 07:37:19;;;;;;;8.30;6.75;;;;;;;24.29;56.61;100395.94;5131723;28;20016;-70
2023/05/21 07:39:45;;;;;;;7.60;6.80;;;;;;;24.34;56.16;100407.06;5131785;28;20042;-70
2023/05/21 07:42:10;;;;;;;7.30;6.53;;;;;;;24.38;56.43;100391.84;5132210;28;20054;-70
2023/05/21 07:44:36;;;;;;;9.18;7.45;;;;;;;24.53;56.70;100409.91;5131911;28;20027;-70
2023/05/21 07:47:01;;;;;;;10.70;7.10;;;;;;;24.52;55.54;100387.13;5136567;28;20012;-70
2023/05/21 07:49:27;;;;;;;13.85;6.78;;;;;;;24.55;55.43;100388.56;5136503;28;20023;-69
2023/05/21 07:51:52;;;;;;;7.88;7.07;;;;;;;24.67;55.44;100390.41;5135876;28;20000;-69
2023/05/21 07:54:18;;;;;;;13.68;6.97;;;;;;;24.83;54.38;100399.97;5136720;28;20035;-70
2023/05/21 07:56:43;;;;;;;9.07;6.00;;;;;;;24.85;53.82;100382.22;5136227;28;20044;-70
2023/05/21 07:59:09;;;;;;;9.55;5.82;;;;;;;24.99;52.45;100388.41;5135832;28;20008;-70
2023/05/21 08:01:36;;;;;;;9.15;7.13;;;;;;;25.07;52.60;100397.19;5134842;28;20026;-70
2023/05/21 08:04:05;;;;;;;7.78;6.40;;;;;;;25.05;52.13;100382.03;5129826;28;20038;-70
2023/05/21 08:06:32;;;;;;;8.35;6.38;;;;;;;25.14;52.12;100386.13;5117749;28;20035;-70
2023/05/21 08:09:00;;;;;;;13.70;6.60;;;;;;;25.17;51.58;100383.78;5132644;27;20540;-70
2023/05/21 08:11:26;;;;;;;8.50;6.18;;;;;;;25.22;51.46;100383.09;5134427;28;20057;-70
2023/05/21 08:13:51;;;;;;;7.82;5.97;;;;;;;25.29;51.93;100390.22;5118538;28;20067;-70
2023/05/21 08:16:17;;;;;;;7.57;6.13;;;;;;;25.28;50.91;100377.53;5116388;28;20055;-70
2023/05/21 08:18:42;;;;;;;9.95;6.50;;;;;;;25.38;50.79;100386.13;5116439;28;20107;-69
2023/05/21 08:21:08;;;;;;;11.70;6.30;;;;;;;25.36;50.98;100359.94;5115808;28;20027;-70
2023/05/21 08:23:33;;;;;;;9.60;6.75;;;;;;;25.52;51.16;100378.56;5115764;28;20020;-69
2023/05/21 08:25:59;;;;;;;9.60;6.07;;;;;;;25.55;50.36;100378.94;5115836;28;20037;-69
2023/05/21 08:28:26;;;;;;;10.82;7.07;;;;;;;25.51;50.70;100366.75;5115859;28;20100;-70
2023/05/21 08:30:51;;;;;;;9.25;6.50;;;;;;;25.60;50.91;100367.28;5115540;28;20065;-69
2023/05/21 08:33:17;;;;;;;8.07;6.38;;;;;;;25.69;50.56;100377.72;5115966;28;20467;-70
2023/05/21 08:35:43;;;;;;;7.60;6.80;;;;;;;25.71;50.09;100382.97;5115489;28;20111;-70
2023/05/21 08:38:08;;;;;;;11.93;6.70;;;;;;;25.76;50.02;100380.38;5113786;28;20388;-70
2023/05/21 08:40:34;;;;;;;10.52;6.18;;;;;;;25.73;50.14;100375.34;5115319;28;20028;-70
2023/05/21 08:43:00;;;;;;;12.75;7.03;;;;;;;25.63;50.22;100364.88;5113601;28;20089;-70
2023/05/21 08:45:26;;;;;;;9.43;6.70;;;;;;;25.71;51.24;100380.22;5114889;28;20038;-70
2023/05/21 08:47:55;;;;;;;10.43;6.50;;;;;;;25.70;50.47;100382.13;5115029;28;20024;-70
2023/05/21 08:50:25;;;;;;;8.40;6.07;;;;;;;25.74;48.85;100377.00;5114811;28;20509;-69
2023/05/21 08:52:51;;;;;;;10.27;6.28;;;;;;;25.77;47.64;100373.81;5114371;28;20027;-70
2023/05/21 08:55:17;;;;;;;9.60;6.22;;;;;;;25.83;46.83;100370.97;5113271;28;20042;-70
2023/05/21 08:57:43;;;;;;;8.23;6.47;;;;;;;25.88;47.53;100373.00;5114938;28;20015;-70
2023/05/21 09:00:10;;;;;;;7.60;6.00;;;;;;;25.75;48.82;100359.44;5114736;28;20039;-69
2023/05/21 09:02:39;;;;;;;6.82;6.13;;;;;;;25.85;48.44;100354.22;5114813;28;20031;-69
2023/05/21 09:05:07;;;;;;;6.40;5.68;;;;;;;25.83;48.10;100359.97;5114642;28;20019;-71
2023/05/21 09:07:49;;;;;;;6.80;5.78;;;;;;;25.88;48.19;100360.13;5114639;28;20718;-71
2023/05/21 09:10:17;;;;;;;8.27;5.65;;;;;;;25.85;47.21;100335.84;5114444;28;20043;-72
2023/05/21 09:12:43;;;;;;;9.43;5.63;;;;;;;26.05;47.08;100372.16;5114151;28;20051;-69
2023/05/21 09:15:09;;;;;;;7.97;5.75;;;;;;;26.02;47.54;100366.31;5114578;28;20491;-70
2023/05/21 09:17:34;;;;;;;8.68;5.78;;;;;;;26.02;48.07;100369.88;5113885;28;20023;-70
2023/05/21 09:20:15;;;;;;;8.40;6.00;;;;;;;25.98;48.72;100362.31;5114118;28;20028;-71
2023/05/21 09:22:45;;;;;;;9.82;5.95;;;;;;;26.06;48.29;100359.25;5114632;28;20064;-70
2023/05/21 09:25:15;;;;;;;7.50;5.35;;;;;;;26.10;47.83;100371.47;5112907;28;20059;-69
2023/05/21 09:27:41;;;;;;;8.48;5.45;;;;;;;26.16;48.14;100359.53;5114044;28;20023;-70
2023/05/21 09:30:12;;;;;;;7.63;5.50;;;;;;;26.20;48.01;100355.22;5114181;28;20038;-69
2023/05/21 09:32:38;;;;;;;10.68;5.90;;;;;;;26.17;48.39;100358.44;5113977;28;20027;-69
2023/05/21 09:35:14;;;;;;;8.38;5.38;;;;;;;26.09;49.18;100353.31;5113992;28;20030;-70
2023/05/21 09:37:46;;;;;;;7.22;6.05;;;;;;;26.14;47.70;100361.66;5113944;28;20095;-70
2023/05/21 09:40:16;;;;;;;7.32;5.80;;;;;;;26.15;47.86;100364.19;5113539;28;20099;-70
2023/05/21 09:42:49;;;;;;;6.07;5.05;;;;;;;26.17;48.09;100355.69;5112654;28;20091;-70
2023/05/21 09:45:18;;;;;;;8.85;6.75;;;;;;;26.28;48.18;100352.16;5113464;28;20023;-70
2023/05/21 09:47:45;;;;;;;11.27;6.35;;;;;;;26.32;48.98;100353.38;5113748;28;20043;-70
2023/05/21 09:50:31;;;;;;;14.18;9.57;;;;;;;26.36;49.36;100346.31;5113438;28;20147;-70
2023/05/21 09:52:57;;;;;;;9.68;6.90;;;;;;;26.42;49.20;100342.63;5113023;28;20044;-71
2023/05/21 09:55:24;;;;;;;7.13;5.22;;;;;;;26.47;48.78;100346.31;5113656;28;20087;-70
2023/05/21 09:57:51;;;;;;;8.70;5.68;;;;;;;26.51;48.71;100341.19;5113177;28;20023;-70
2023/05/21 10:00:22;;;;;;;8.35;5.40;;;;;;;26.47;49.30;100328.97;5111099;28;20066;-71
2023/05/21 10:02:49;;;;;;;7.50;5.10;;;;;;;26.45;48.88;100325.63;5106278;28;20597;-67
2023/05/21 10:05:16;;;;;;;8.55;5.22;;;;;;;26.45;49.42;100325.63;5106629;28;20051;-70
2023/05/21 10:07:47;;;;;;;9.30;5.07;;;;;;;26.48;50.45;100319.66;5105294;28;20037;-68
2023/05/21 10:10:14;;;;;;;8.18;4.70;;;;;;;26.51;48.28;100325.50;5110996;28;20026;-69
2023/05/21 10:12:45;;;;;;;6.95;4.95;;;;;;;26.63;46.81;100339.31;5110430;28;20050;-68
2023/05/21 10:15:14;;;;;;;7.88;5.55;;;;;;;26.59;47.61;100320.75;5100486;28;20039;-68
2023/05/21 10:17:40;;;;;;;7.43;5.03;;;;;;;26.60;48.45;100327.94;5108652;28;20026;-68
2023/05/21 10:20:10;;;;;;;7.65;4.80;;;;;;;26.72;47.06;100331.56;5107715;28;20023;-68
2023/05/21 10:22:36;;;;;;;6.97;4.85;;;;;;;26.76;47.58;100327.25;5108686;28;20042;-69
2023/05/21 10:25:02;;;;;;;5.38;4.88;;;;;;;26.66;47.40;100311.31;5107144;28;20510;-68
2023/05/21 10:27:29;;;;;;;15.10;5.15;;;;;;;26.61;46.55;100319.47;5106907;28;20115;-68
2023/05/21 10:29:58;;;;;;;7.35;4.90;;;;;;;26.63;46.62;100328.31;5107003;28;20035;-68
2023/05/21 10:32:26;;;;;;;8.48;5.38;;;;;;;26.64;47.98;100326.41;5108011;28;20024;-68
2023/05/21 10:34:53;;;;;;;7.30;5.55;;;;;;;26.66;44.26;100333.31;5106948;28;20039;-68
2023/05/21 10:37:22;;;;;;;6.05;5.15;;;;;;;26.58;43.88;100308.91;5108575;28;21443;-68
2023/05/21 10:39:49;;;;;;;7.38;5.28;;;;;;;26.64;43.30;100313.50;5107837;28;20031;-68
2023/05/21 10:42:20;;;;;;;7.07;5.20;;;;;;;26.66;44.13;100311.31;5108471;28;20031;-68
2023/05/21 10:44:53;;;;;;;7.07;5.85;;;;;;;26.71;44.66;100316.94;5107969;28;20032;-68
2023/05/21 10:47:40;;;;;;;7.43;5.00;;;;;;;26.75;44.53;100318.16;5106430;28;20875;-68
2023/05/21 10:50:20;;;;;;;5.68;5.13;;;;;;;26.77;44.32;100307.75;5107012;28;20495;-68
2023/05/21 10:53:06;;;;;;;6.93;5.45;;;;;;;26.75;44.30;100307.13;5107342;28;20040;-68
2023/05/21 10:55:51;;;;;;;11.00;5.57;;;;;;;26.72;44.33;100304.03;5103255;28;20019;-68
2023/05/21 10:58:46;;;;;;;5.70;5.10;;;;;;;26.69;44.38;100288.00;5104514;28;20038;-68
2023/05/21 11:01:14;;;;;;;6.70;5.00;;;;;;;26.83;44.27;100294.94;5109144;28;20035;-68
2023/05/21 11:03:39;;;;;;;7.13;5.00;;;;;;;26.90;44.16;100306.66;5109070;28;20035;-68
2023/05/21 11:06:05;;;;;;;7.93;5.82;;;;;;;26.93;43.78;100303.41;5107265;28;20027;-68
2023/05/21 11:08:34;;;;;;;6.32;5.30;;;;;;;27.00;43.18;100307.72;5109091;28;20058;-68
2023/05/21 11:11:01;;;;;;;5.80;5.07;;;;;;;27.00;43.44;100304.97;5109027;28;20145;-69
2023/05/21 11:13:30;;;;;;;8.30;5.50;;;;;;;26.91;44.57;100281.63;5106372;28;20047;-68